Tenbury Wells, United Kingdom
Current Conditions -  °F | °C
As of 10:50 AM on Friday 19 Dec 2014 (Local Time) from EGBJ Reporting Station
Few Clouds Few Clouds  
Wind Chill: 44°   Ceiling: Unl
Heat Index: 46°   Visibility: 6mi
Dew Point: 37°   Wind: 5mph
Humidity: 71%   Direction: 230°SW
Pressure: 30"   Gusts: NA
Location:  52.31°N, 2.59°W
Report Text: EGBJ 191050Z 23004KT 190V270 9999 FEW025 08/03 Q1016
Loading
Personal Weather Stations






























Interactive Weather Map New forecast layout! Learn more

10-Day Weather Forecast

Advertisements
Track Severe Weather on mobile